sensor_id;sensor_type;location;lat;lon;timestamp;P1;durP1;ratioP1;P2;durP2;ratioP2
32347;SDS011;18821;44.800;10.326;2023-05-07T00:00:21;6.88;;;4.63;;
32347;SDS011;18821;44.800;10.326;2023-05-07T00:02:47;7.25;;;4.00;;
32347;SDS011;18821;44.800;10.326;2023-05-07T00:05:13;5.03;;;3.90;;
32347;SDS011;18821;44.800;10.326;2023-05-07T00:07:39;7.10;;;3.78;;
32347;SDS011;18821;44.800;10.326;2023-05-07T00:10:06;6.20;;;3.97;;
32347;SDS011;18821;44.800;10.326;2023-05-07T00:12:32;5.55;;;3.72;;
32347;SDS011;18821;44.800;10.326;2023-05-07T00:15:02;6.47;;;3.70;;
32347;SDS011;18821;44.800;10.326;2023-05-07T00:17:29;4.78;;;3.58;;
32347;SDS011;18821;44.800;10.326;2023-05-07T00:19:55;7.05;;;4.32;;
32347;SDS011;18821;44.800;10.326;2023-05-07T00:22:21;5.18;;;3.63;;
32347;SDS011;18821;44.800;10.326;2023-05-07T00:24:47;6.05;;;4.80;;
32347;SDS011;18821;44.800;10.326;2023-05-07T00:27:13;7.18;;;4.82;;
32347;SDS011;18821;44.800;10.326;2023-05-07T00:29:39;17.77;;;6.97;;
32347;SDS011;18821;44.800;10.326;2023-05-07T00:32:05;14.27;;;8.00;;
32347;SDS011;18821;44.800;10.326;2023-05-07T00:34:31;12.73;;;9.82;;
32347;SDS011;18821;44.800;10.326;2023-05-07T00:36:56;17.35;;;11.43;;
32347;SDS011;18821;44.800;10.326;2023-05-07T00:39:22;18.35;;;13.82;;
32347;SDS011;18821;44.800;10.326;2023-05-07T00:41:48;19.58;;;14.77;;
32347;SDS011;18821;44.800;10.326;2023-05-07T00:44:14;34.97;;;17.02;;
32347;SDS011;18821;44.800;10.326;2023-05-07T00:46:40;21.20;;;17.42;;
32347;SDS011;18821;44.800;10.326;2023-05-07T00:49:06;25.95;;;17.67;;
32347;SDS011;18821;44.800;10.326;2023-05-07T00:51:32;26.98;;;17.67;;
32347;SDS011;18821;44.800;10.326;2023-05-07T00:53:59;22.98;;;18.13;;
32347;SDS011;18821;44.800;10.326;2023-05-07T00:56:27;23.88;;;19.10;;
32347;SDS011;18821;44.800;10.326;2023-05-07T00:58:53;27.58;;;20.30;;
32347;SDS011;18821;44.800;10.326;2023-05-07T01:01:19;30.05;;;19.52;;
32347;SDS011;18821;44.800;10.326;2023-05-07T01:03:45;24.90;;;19.42;;
32347;SDS011;18821;44.800;10.326;2023-05-07T01:06:11;30.77;;;20.98;;
32347;SDS011;18821;44.800;10.326;2023-05-07T01:08:39;30.73;;;20.25;;
32347;SDS011;18821;44.800;10.326;2023-05-07T01:11:09;27.52;;;21.55;;
32347;SDS011;18821;44.800;10.326;2023-05-07T01:13:36;30.38;;;23.13;;
32347;SDS011;18821;44.800;10.326;2023-05-07T01:16:03;34.03;;;23.98;;
32347;SDS011;18821;44.800;10.326;2023-05-07T01:18:30;33.55;;;24.42;;
32347;SDS011;18821;44.800;10.326;2023-05-07T01:20:57;37.10;;;27.23;;
32347;SDS011;18821;44.800;10.326;2023-05-07T01:23:26;40.10;;;27.77;;
32347;SDS011;18821;44.800;10.326;2023-05-07T01:25:53;39.45;;;30.52;;
32347;SDS011;18821;44.800;10.326;2023-05-07T01:28:21;42.97;;;30.58;;
32347;SDS011;18821;44.800;10.326;2023-05-07T01:30:49;41.65;;;31.67;;
32347;SDS011;18821;44.800;10.326;2023-05-07T01:33:22;43.17;;;31.07;;
32347;SDS011;18821;44.800;10.326;2023-05-07T01:35:50;39.40;;;28.92;;
32347;SDS011;18821;44.800;10.326;2023-05-07T01:38:18;39.85;;;29.98;;
32347;SDS011;18821;44.800;10.326;2023-05-07T01:40:46;39.47;;;29.05;;
32347;SDS011;18821;44.800;10.326;2023-05-07T01:43:13;36.58;;;28.48;;
32347;SDS011;18821;44.800;10.326;2023-05-07T01:45:39;37.65;;;29.05;;
32347;SDS011;18821;44.800;10.326;2023-05-07T01:48:06;39.65;;;30.58;;
32347;SDS011;18821;44.800;10.326;2023-05-07T01:50:33;39.80;;;30.77;;
32347;SDS011;18821;44.800;10.326;2023-05-07T01:52:59;38.17;;;30.38;;
32347;SDS011;18821;44.800;10.326;2023-05-07T01:55:27;43.78;;;29.73;;
32347;SDS011;18821;44.800;10.326;2023-05-07T01:57:53;37.10;;;28.98;;
32347;SDS011;18821;44.800;10.326;2023-05-07T02:00:19;41.47;;;29.80;;
32347;SDS011;18821;44.800;10.326;2023-05-07T02:02:45;42.33;;;30.50;;
32347;SDS011;18821;44.800;10.326;2023-05-07T02:05:27;38.90;;;29.80;;
32347;SDS011;18821;44.800;10.326;2023-05-07T02:08:04;42.33;;;28.48;;
32347;SDS011;18821;44.800;10.326;2023-05-07T02:10:30;34.45;;;26.73;;
32347;SDS011;18821;44.800;10.326;2023-05-07T02:12:58;37.63;;;27.65;;
32347;SDS011;18821;44.800;10.326;2023-05-07T02:15:24;33.10;;;26.60;;
32347;SDS011;18821;44.800;10.326;2023-05-07T02:18:04;34.75;;;26.20;;
32347;SDS011;18821;44.800;10.326;2023-05-07T02:20:32;39.92;;;26.80;;
32347;SDS011;18821;44.800;10.326;2023-05-07T02:22:58;35.08;;;24.85;;
32347;SDS011;18821;44.800;10.326;2023-05-07T02:25:26;35.30;;;25.38;;
32347;SDS011;18821;44.800;10.326;2023-05-07T02:27:52;33.45;;;26.92;;
32347;SDS011;18821;44.800;10.326;2023-05-07T02:30:22;35.03;;;25.42;;
32347;SDS011;18821;44.800;10.326;2023-05-07T02:32:51;34.65;;;26.98;;
32347;SDS011;18821;44.800;10.326;2023-05-07T02:35:17;36.90;;;26.63;;
32347;SDS011;18821;44.800;10.326;2023-05-07T02:37:43;33.67;;;24.55;;
32347;SDS011;18821;44.800;10.326;2023-05-07T02:40:10;29.77;;;19.92;;
32347;SDS011;18821;44.800;10.326;2023-05-07T02:42:36;18.77;;;14.35;;
32347;SDS011;18821;44.800;10.326;2023-05-07T02:45:02;15.20;;;10.43;;
32347;SDS011;18821;44.800;10.326;2023-05-07T02:47:30;10.52;;;6.78;;
32347;SDS011;18821;44.800;10.326;2023-05-07T02:49:57;5.88;;;4.82;;
32347;SDS011;18821;44.800;10.326;2023-05-07T02:52:23;8.15;;;4.30;;
32347;SDS011;18821;44.800;10.326;2023-05-07T02:54:49;9.32;;;4.40;;
32347;SDS011;18821;44.800;10.326;2023-05-07T02:57:15;5.22;;;3.38;;
32347;SDS011;18821;44.800;10.326;2023-05-07T02:59:41;4.43;;;3.35;;
32347;SDS011;18821;44.800;10.326;2023-05-07T03:02:08;5.00;;;3.03;;
32347;SDS011;18821;44.800;10.326;2023-05-07T03:04:34;5.47;;;4.00;;
32347;SDS011;18821;44.800;10.326;2023-05-07T03:07:00;5.20;;;3.53;;
32347;SDS011;18821;44.800;10.326;2023-05-07T03:09:25;8.15;;;4.50;;
32347;SDS011;18821;44.800;10.326;2023-05-07T03:11:52;7.70;;;4.53;;
32347;SDS011;18821;44.800;10.326;2023-05-07T03:14:18;8.85;;;4.43;;
32347;SDS011;18821;44.800;10.326;2023-05-07T03:16:43;6.10;;;4.47;;
32347;SDS011;18821;44.800;10.326;2023-05-07T03:19:09;5.80;;;4.78;;
32347;SDS011;18821;44.800;10.326;2023-05-07T03:21:35;8.43;;;4.78;;
32347;SDS011;18821;44.800;10.326;2023-05-07T03:24:01;8.40;;;4.78;;
32347;SDS011;18821;44.800;10.326;2023-05-07T03:26:27;8.88;;;5.18;;
32347;SDS011;18821;44.800;10.326;2023-05-07T03:28:53;6.07;;;4.90;;
32347;SDS011;18821;44.800;10.326;2023-05-07T03:31:20;6.40;;;5.53;;
32347;SDS011;18821;44.800;10.326;2023-05-07T03:33:49;7.75;;;5.18;;
32347;SDS011;18821;44.800;10.326;2023-05-07T03:36:19;9.30;;;5.90;;
32347;SDS011;18821;44.800;10.326;2023-05-07T03:38:49;8.63;;;5.80;;
32347;SDS011;18821;44.800;10.326;2023-05-07T03:41:21;7.13;;;6.03;;
32347;SDS011;18821;44.800;10.326;2023-05-07T03:43:47;7.70;;;5.72;;
32347;SDS011;18821;44.800;10.326;2023-05-07T03:46:14;11.02;;;6.55;;
32347;SDS011;18821;44.800;10.326;2023-05-07T03:48:40;10.82;;;6.30;;
32347;SDS011;18821;44.800;10.326;2023-05-07T03:51:06;9.02;;;6.40;;
32347;SDS011;18821;44.800;10.326;2023-05-07T03:53:32;8.57;;;5.90;;
32347;SDS011;18821;44.800;10.326;2023-05-07T03:55:59;9.93;;;7.00;;
32347;SDS011;18821;44.800;10.326;2023-05-07T03:58:25;11.98;;;6.30;;
32347;SDS011;18821;44.800;10.326;2023-05-07T04:00:54;11.90;;;6.43;;
32347;SDS011;18821;44.800;10.326;2023-05-07T04:03:24;11.63;;;6.50;;
32347;SDS011;18821;44.800;10.326;2023-05-07T04:05:51;7.18;;;6.22;;
32347;SDS011;18821;44.800;10.326;2023-05-07T04:08:17;7.93;;;5.88;;
32347;SDS011;18821;44.800;10.326;2023-05-07T04:10:47;9.07;;;6.60;;
32347;SDS011;18821;44.800;10.326;2023-05-07T04:13:13;6.60;;;5.45;;
32347;SDS011;18821;44.800;10.326;2023-05-07T04:15:39;7.45;;;5.25;;
32347;SDS011;18821;44.800;10.326;2023-05-07T04:18:08;6.40;;;5.40;;
32347;SDS011;18821;44.800;10.326;2023-05-07T04:20:36;16.83;;;5.72;;
32347;SDS011;18821;44.800;10.326;2023-05-07T04:23:03;6.68;;;4.60;;
32347;SDS011;18821;44.800;10.326;2023-05-07T04:25:30;8.90;;;4.45;;
32347;SDS011;18821;44.800;10.326;2023-05-07T04:28:03;5.38;;;4.05;;
32347;SDS011;18821;44.800;10.326;2023-05-07T04:30:29;5.80;;;3.70;;
32347;SDS011;18821;44.800;10.326;2023-05-07T04:32:56;8.00;;;5.18;;
32347;SDS011;18821;44.800;10.326;2023-05-07T04:35:24;7.07;;;4.10;;
32347;SDS011;18821;44.800;10.326;2023-05-07T04:37:50;6.78;;;4.00;;
32347;SDS011;18821;44.800;10.326;2023-05-07T04:40:16;5.50;;;4.00;;
32347;SDS011;18821;44.800;10.326;2023-05-07T04:42:42;7.10;;;4.25;;
32347;SDS011;18821;44.800;10.326;2023-05-07T04:45:09;9.05;;;4.88;;
32347;SDS011;18821;44.800;10.326;2023-05-07T04:47:38;6.13;;;4.38;;
32347;SDS011;18821;44.800;10.326;2023-05-07T04:50:04;5.45;;;4.03;;
32347;SDS011;18821;44.800;10.326;2023-05-07T04:52:32;9.00;;;4.10;;
32347;SDS011;18821;44.800;10.326;2023-05-07T04:55:00;5.75;;;4.32;;
32347;SDS011;18821;44.800;10.326;2023-05-07T04:57:29;18.38;;;5.13;;
32347;SDS011;18821;44.800;10.326;2023-05-07T04:59:55;5.35;;;4.28;;
32347;SDS011;18821;44.800;10.326;2023-05-07T05:02:21;8.05;;;4.28;;
32347;SDS011;18821;44.800;10.326;2023-05-07T05:04:47;7.22;;;4.25;;
32347;SDS011;18821;44.800;10.326;2023-05-07T05:07:13;4.90;;;4.40;;
32347;SDS011;18821;44.800;10.326;2023-05-07T05:09:40;7.45;;;4.32;;
32347;SDS011;18821;44.800;10.326;2023-05-07T05:12:06;8.40;;;4.40;;
32347;SDS011;18821;44.800;10.326;2023-05-07T05:14:34;8.57;;;5.18;;
32347;SDS011;18821;44.800;10.326;2023-05-07T05:17:00;10.57;;;6.03;;
32347;SDS011;18821;44.800;10.326;2023-05-07T05:19:26;10.60;;;5.57;;
32347;SDS011;18821;44.800;10.326;2023-05-07T05:21:52;9.57;;;6.53;;
32347;SDS011;18821;44.800;10.326;2023-05-07T05:24:18;10.23;;;6.93;;
32347;SDS011;18821;44.800;10.326;2023-05-07T05:26:45;12.70;;;7.28;;
32347;SDS011;18821;44.800;10.326;2023-05-07T05:29:11;9.75;;;7.38;;
32347;SDS011;18821;44.800;10.326;2023-05-07T05:31:39;7.35;;;6.65;;
32347;SDS011;18821;44.800;10.326;2023-05-07T05:34:06;10.13;;;6.93;;
32347;SDS011;18821;44.800;10.326;2023-05-07T05:36:33;10.70;;;7.07;;
32347;SDS011;18821;44.800;10.326;2023-05-07T05:39:00;11.45;;;7.93;;
32347;SDS011;18821;44.800;10.326;2023-05-07T05:41:27;9.95;;;7.03;;
32347;SDS011;18821;44.800;10.326;2023-05-07T05:43:53;16.27;;;8.15;;
32347;SDS011;18821;44.800;10.326;2023-05-07T05:46:19;13.00;;;7.70;;
32347;SDS011;18821;44.800;10.326;2023-05-07T05:48:45;16.08;;;8.20;;
32347;SDS011;18821;44.800;10.326;2023-05-07T05:51:11;12.20;;;9.63;;
32347;SDS011;18821;44.800;10.326;2023-05-07T05:53:37;12.95;;;8.85;;
32347;SDS011;18821;44.800;10.326;2023-05-07T05:56:05;13.35;;;8.18;;
32347;SDS011;18821;44.800;10.326;2023-05-07T05:58:33;11.02;;;7.60;;
32347;SDS011;18821;44.800;10.326;2023-05-07T06:01:03;13.57;;;8.68;;
32347;SDS011;18821;44.800;10.326;2023-05-07T06:03:30;14.02;;;8.60;;
32347;SDS011;18821;44.800;10.326;2023-05-07T06:06:00;12.98;;;9.38;;
32347;SDS011;18821;44.800;10.326;2023-05-07T06:08:28;12.07;;;8.40;;
32347;SDS011;18821;44.800;10.326;2023-05-07T06:10:55;12.85;;;8.70;;
32347;SDS011;18821;44.800;10.326;2023-05-07T06:13:22;11.93;;;9.25;;
32347;SDS011;18821;44.800;10.326;2023-05-07T06:15:49;11.73;;;8.73;;
32347;SDS011;18821;44.800;10.326;2023-05-07T06:18:15;14.90;;;8.73;;
32347;SDS011;18821;44.800;10.326;2023-05-07T06:20:41;13.25;;;9.00;;
32347;SDS011;18821;44.800;10.326;2023-05-07T06:23:13;11.70;;;9.75;;
32347;SDS011;18821;44.800;10.326;2023-05-07T06:25:39;15.48;;;10.48;;
32347;SDS011;18821;44.800;10.326;2023-05-07T06:28:06;14.65;;;10.65;;
32347;SDS011;18821;44.800;10.326;2023-05-07T06:30:35;17.27;;;11.70;;
32347;SDS011;18821;44.800;10.326;2023-05-07T06:33:01;17.50;;;12.10;;
32347;SDS011;18821;44.800;10.326;2023-05-07T06:35:27;16.40;;;13.70;;
32347;SDS011;18821;44.800;10.326;2023-05-07T06:37:54;16.48;;;12.70;;
32347;SDS011;18821;44.800;10.326;2023-05-07T06:40:23;15.82;;;12.48;;
32347;SDS011;18821;44.800;10.326;2023-05-07T06:42:49;19.75;;;13.48;;
32347;SDS011;18821;44.800;10.326;2023-05-07T06:45:44;19.27;;;13.65;;
32347;SDS011;18821;44.800;10.326;2023-05-07T06:48:10;19.30;;;12.93;;
32347;SDS011;18821;44.800;10.326;2023-05-07T06:50:46;17.77;;;12.73;;
32347;SDS011;18821;44.800;10.326;2023-05-07T06:53:12;20.30;;;14.05;;
32347;SDS011;18821;44.800;10.326;2023-05-07T06:55:38;19.33;;;15.80;;
32347;SDS011;18821;44.800;10.326;2023-05-07T06:58:05;20.33;;;16.27;;
32347;SDS011;18821;44.800;10.326;2023-05-07T07:00:34;20.30;;;16.05;;
32347;SDS011;18821;44.800;10.326;2023-05-07T07:03:00;23.10;;;17.20;;
32347;SDS011;18821;44.800;10.326;2023-05-07T07:05:27;18.90;;;16.08;;
32347;SDS011;18821;44.800;10.326;2023-05-07T07:07:54;23.08;;;15.95;;
32347;SDS011;18821;44.800;10.326;2023-05-07T07:10:20;19.25;;;15.63;;
32347;SDS011;18821;44.800;10.326;2023-05-07T07:12:49;19.52;;;14.80;;
32347;SDS011;18821;44.800;10.326;2023-05-07T07:15:16;20.25;;;15.35;;
32347;SDS011;18821;44.800;10.326;2023-05-07T07:17:42;17.88;;;14.57;;
32347;SDS011;18821;44.800;10.326;2023-05-07T07:20:08;17.50;;;14.52;;
32347;SDS011;18821;44.800;10.326;2023-05-07T07:22:35;18.38;;;13.95;;
32347;SDS011;18821;44.800;10.326;2023-05-07T07:25:02;21.65;;;14.65;;
32347;SDS011;18821;44.800;10.326;2023-05-07T07:27:28;23.70;;;13.30;;
32347;SDS011;18821;44.800;10.326;2023-05-07T07:29:54;20.50;;;15.35;;
32347;SDS011;18821;44.800;10.326;2023-05-07T07:32:20;19.05;;;12.95;;
32347;SDS011;18821;44.800;10.326;2023-05-07T07:34:46;17.17;;;12.35;;
32347;SDS011;18821;44.800;10.326;2023-05-07T07:37:12;17.27;;;12.63;;
32347;SDS011;18821;44.800;10.326;2023-05-07T07:39:40;19.00;;;11.85;;
32347;SDS011;18821;44.800;10.326;2023-05-07T07:42:07;22.33;;;15.52;;
32347;SDS011;18821;44.800;10.326;2023-05-07T07:44:33;19.98;;;14.40;;
32347;SDS011;18821;44.800;10.326;2023-05-07T07:47:07;16.67;;;12.90;;
32347;SDS011;18821;44.800;10.326;2023-05-07T07:49:34;17.58;;;12.77;;
32347;SDS011;18821;44.800;10.326;2023-05-07T07:52:04;19.23;;;12.75;;
32347;SDS011;18821;44.800;10.326;2023-05-07T07:54:32;18.58;;;12.98;;
32347;SDS011;18821;44.800;10.326;2023-05-07T07:56:58;19.38;;;12.82;;
32347;SDS011;18821;44.800;10.326;2023-05-07T07:59:25;22.95;;;13.18;;
32347;SDS011;18821;44.800;10.326;2023-05-07T08:01:54;15.75;;;12.75;;
32347;SDS011;18821;44.800;10.326;2023-05-07T08:04:23;16.83;;;13.35;;
32347;SDS011;18821;44.800;10.326;2023-05-07T08:06:49;17.50;;;12.77;;
32347;SDS011;18821;44.800;10.326;2023-05-07T08:09:15;16.40;;;13.13;;
32347;SDS011;18821;44.800;10.326;2023-05-07T08:11:41;18.15;;;14.20;;
32347;SDS011;18821;44.800;10.326;2023-05-07T08:14:08;19.65;;;13.10;;
32347;SDS011;18821;44.800;10.326;2023-05-07T08:16:34;18.20;;;13.57;;
32347;SDS011;18821;44.800;10.326;2023-05-07T08:19:01;20.55;;;13.95;;
32347;SDS011;18821;44.800;10.326;2023-05-07T08:21:27;16.88;;;13.10;;
32347;SDS011;18821;44.800;10.326;2023-05-07T08:23:53;17.55;;;13.68;;
32347;SDS011;18821;44.800;10.326;2023-05-07T08:26:21;20.45;;;13.25;;
32347;SDS011;18821;44.800;10.326;2023-05-07T08:28:47;16.92;;;14.32;;
32347;SDS011;18821;44.800;10.326;2023-05-07T08:31:13;17.30;;;14.45;;
32347;SDS011;18821;44.800;10.326;2023-05-07T08:33:42;19.08;;;13.80;;
32347;SDS011;18821;44.800;10.326;2023-05-07T08:36:08;15.98;;;13.20;;
32347;SDS011;18821;44.800;10.326;2023-05-07T08:38:34;15.45;;;13.65;;
32347;SDS011;18821;44.800;10.326;2023-05-07T08:41:01;20.08;;;13.52;;
32347;SDS011;18821;44.800;10.326;2023-05-07T08:43:29;16.35;;;12.52;;
32347;SDS011;18821;44.800;10.326;2023-05-07T08:45:59;19.30;;;13.38;;
32347;SDS011;18821;44.800;10.326;2023-05-07T08:48:30;16.73;;;11.23;;
32347;SDS011;18821;44.800;10.326;2023-05-07T08:51:11;15.73;;;12.35;;
32347;SDS011;18821;44.800;10.326;2023-05-07T08:53:39;21.63;;;11.93;;
32347;SDS011;18821;44.800;10.326;2023-05-07T08:56:08;18.80;;;11.32;;
32347;SDS011;18821;44.800;10.326;2023-05-07T08:58:35;15.65;;;11.38;;
32347;SDS011;18821;44.800;10.326;2023-05-07T09:01:07;17.33;;;11.27;;
32347;SDS011;18821;44.800;10.326;2023-05-07T09:06:04;13.98;;;11.25;;
32347;SDS011;18821;44.800;10.326;2023-05-07T09:08:32;13.82;;;10.65;;
32347;SDS011;18821;44.800;10.326;2023-05-07T09:11:07;13.20;;;10.68;;
32347;SDS011;18821;44.800;10.326;2023-05-07T09:13:38;13.13;;;9.95;;
32347;SDS011;18821;44.800;10.326;2023-05-07T09:16:11;11.75;;;9.80;;
32347;SDS011;18821;44.800;10.326;2023-05-07T09:18:42;10.35;;;8.68;;
32347;SDS011;18821;44.800;10.326;2023-05-07T09:21:19;14.55;;;8.98;;
32347;SDS011;18821;44.800;10.326;2023-05-07T09:23:49;15.60;;;7.90;;
32347;SDS011;18821;44.800;10.326;2023-05-07T09:26:16;12.73;;;8.50;;
32347;SDS011;18821;44.800;10.326;2023-05-07T09:28:43;10.52;;;9.25;;
32347;SDS011;18821;44.800;10.326;2023-05-07T09:31:12;11.90;;;8.88;;
32347;SDS011;18821;44.800;10.326;2023-05-07T09:33:39;13.98;;;9.70;;
32347;SDS011;18821;44.800;10.326;2023-05-07T09:36:07;12.60;;;8.60;;
32347;SDS011;18821;44.800;10.326;2023-05-07T09:38:37;10.70;;;8.40;;
32347;SDS011;18821;44.800;10.326;2023-05-07T09:41:04;12.43;;;8.27;;
32347;SDS011;18821;44.800;10.326;2023-05-07T09:43:37;11.88;;;8.55;;
32347;SDS011;18821;44.800;10.326;2023-05-07T09:46:07;10.95;;;8.23;;
32347;SDS011;18821;44.800;10.326;2023-05-07T09:48:40;15.90;;;10.20;;
32347;SDS011;18821;44.800;10.326;2023-05-07T09:51:22;16.27;;;10.30;;
32347;SDS011;18821;44.800;10.326;2023-05-07T09:53:56;16.00;;;12.15;;
32347;SDS011;18821;44.800;10.326;2023-05-07T09:56:26;17.48;;;13.65;;
32347;SDS011;18821;44.800;10.326;2023-05-07T09:58:54;16.77;;;13.27;;
32347;SDS011;18821;44.800;10.326;2023-05-07T10:01:21;19.65;;;13.77;;
32347;SDS011;18821;44.800;10.326;2023-05-07T10:03:50;19.48;;;15.02;;
32347;SDS011;18821;44.800;10.326;2023-05-07T10:06:19;21.17;;;15.80;;
32347;SDS011;18821;44.800;10.326;2023-05-07T10:08:45;18.02;;;14.35;;
32347;SDS011;18821;44.800;10.326;2023-05-07T10:11:13;16.75;;;12.00;;
32347;SDS011;18821;44.800;10.326;2023-05-07T10:13:41;16.17;;;12.55;;
32347;SDS011;18821;44.800;10.326;2023-05-07T10:16:09;19.10;;;13.57;;
32347;SDS011;18821;44.800;10.326;2023-05-07T10:18:41;18.33;;;12.60;;
32347;SDS011;18821;44.800;10.326;2023-05-07T10:21:18;15.07;;;11.77;;
32347;SDS011;18821;44.800;10.326;2023-05-07T10:23:50;15.65;;;11.02;;
32347;SDS011;18821;44.800;10.326;2023-05-07T10:26:22;13.45;;;10.38;;
32347;SDS011;18821;44.800;10.326;2023-05-07T10:28:50;15.75;;;11.30;;
32347;SDS011;18821;44.800;10.326;2023-05-07T10:31:46;15.93;;;12.07;;
32347;SDS011;18821;44.800;10.326;2023-05-07T10:34:08;16.65;;;12.68;;
32347;SDS011;18821;44.800;10.326;2023-05-07T10:36:38;14.43;;;11.43;;
32347;SDS011;18821;44.800;10.326;2023-05-07T10:39:05;16.90;;;13.25;;
32347;SDS011;18821;44.800;10.326;2023-05-07T10:41:32;18.30;;;15.23;;
32347;SDS011;18821;44.800;10.326;2023-05-07T10:43:58;15.50;;;13.43;;
32347;SDS011;18821;44.800;10.326;2023-05-07T10:46:29;17.70;;;14.98;;
32347;SDS011;18821;44.800;10.326;2023-05-07T10:49:06;17.13;;;13.77;;
32347;SDS011;18821;44.800;10.326;2023-05-07T10:51:41;20.80;;;15.40;;
32347;SDS011;18821;44.800;10.326;2023-05-07T10:54:18;21.07;;;13.50;;
32347;SDS011;18821;44.800;10.326;2023-05-07T10:56:53;17.63;;;14.50;;
32347;SDS011;18821;44.800;10.326;2023-05-07T11:02:03;16.40;;;13.10;;
32347;SDS011;18821;44.800;10.326;2023-05-07T11:08:05;20.73;;;13.70;;
32347;SDS011;18821;44.800;10.326;2023-05-07T11:10:48;18.27;;;13.85;;
32347;SDS011;18821;44.800;10.326;2023-05-07T11:13:41;17.85;;;12.73;;
32347;SDS011;18821;44.800;10.326;2023-05-07T11:16:19;15.85;;;11.52;;
32347;SDS011;18821;44.800;10.326;2023-05-07T11:18:55;15.70;;;12.23;;
32347;SDS011;18821;44.800;10.326;2023-05-07T11:21:40;18.25;;;11.90;;
32347;SDS011;18821;44.800;10.326;2023-05-07T11:24:26;16.90;;;12.90;;
32347;SDS011;18821;44.800;10.326;2023-05-07T11:27:03;15.05;;;11.38;;
32347;SDS011;18821;44.800;10.326;2023-05-07T11:29:30;18.25;;;13.07;;
32347;SDS011;18821;44.800;10.326;2023-05-07T11:32:03;12.50;;;11.02;;
32347;SDS011;18821;44.800;10.326;2023-05-07T11:34:34;17.00;;;12.70;;
32347;SDS011;18821;44.800;10.326;2023-05-07T11:37:01;16.52;;;12.65;;
32347;SDS011;18821;44.800;10.326;2023-05-07T11:39:41;17.17;;;11.55;;
32347;SDS011;18821;44.800;10.326;2023-05-07T11:42:07;15.25;;;11.48;;
32347;SDS011;18821;44.800;10.326;2023-05-07T11:44:57;12.88;;;9.82;;
32347;SDS011;18821;44.800;10.326;2023-05-07T11:47:24;15.88;;;9.73;;
32347;SDS011;18821;44.800;10.326;2023-05-07T11:49:54;14.57;;;9.90;;
32347;SDS011;18821;44.800;10.326;2023-05-07T11:52:21;14.90;;;9.50;;
32347;SDS011;18821;44.800;10.326;2023-05-07T11:54:58;12.77;;;9.85;;
32347;SDS011;18821;44.800;10.326;2023-05-07T11:57:29;11.73;;;8.00;;
32347;SDS011;18821;44.800;10.326;2023-05-07T11:59:58;12.50;;;8.30;;
32347;SDS011;18821;44.800;10.326;2023-05-07T12:02:27;12.65;;;10.98;;
32347;SDS011;18821;44.800;10.326;2023-05-07T12:04:53;15.32;;;10.68;;
32347;SDS011;18821;44.800;10.326;2023-05-07T12:07:20;13.85;;;9.55;;
32347;SDS011;18821;44.800;10.326;2023-05-07T12:09:46;15.05;;;10.75;;
32347;SDS011;18821;44.800;10.326;2023-05-07T12:12:13;15.00;;;10.57;;
32347;SDS011;18821;44.800;10.326;2023-05-07T12:14:43;13.82;;;9.82;;
32347;SDS011;18821;44.800;10.326;2023-05-07T12:17:10;14.25;;;9.13;;
32347;SDS011;18821;44.800;10.326;2023-05-07T12:19:39;13.38;;;9.85;;
32347;SDS011;18821;44.800;10.326;2023-05-07T12:22:10;13.85;;;8.75;;
32347;SDS011;18821;44.800;10.326;2023-05-07T12:24:49;13.00;;;8.45;;
32347;SDS011;18821;44.800;10.326;2023-05-07T12:27:22;11.82;;;8.73;;
32347;SDS011;18821;44.800;10.326;2023-05-07T12:29:48;8.98;;;8.02;;
32347;SDS011;18821;44.800;10.326;2023-05-07T12:32:16;11.38;;;8.80;;
32347;SDS011;18821;44.800;10.326;2023-05-07T12:34:43;10.40;;;8.60;;
32347;SDS011;18821;44.800;10.326;2023-05-07T12:37:10;14.10;;;10.07;;
32347;SDS011;18821;44.800;10.326;2023-05-07T12:39:38;10.95;;;9.20;;
32347;SDS011;18821;44.800;10.326;2023-05-07T12:42:09;9.45;;;7.63;;
32347;SDS011;18821;44.800;10.326;2023-05-07T12:44:41;9.10;;;7.90;;
32347;SDS011;18821;44.800;10.326;2023-05-07T12:47:09;11.73;;;7.35;;
32347;SDS011;18821;44.800;10.326;2023-05-07T12:49:35;10.05;;;8.38;;
32347;SDS011;18821;44.800;10.326;2023-05-07T12:52:05;10.27;;;7.40;;
32347;SDS011;18821;44.800;10.326;2023-05-07T12:54:32;12.23;;;8.40;;
32347;SDS011;18821;44.800;10.326;2023-05-07T12:57:06;11.55;;;7.57;;
32347;SDS011;18821;44.800;10.326;2023-05-07T12:59:38;8.75;;;7.63;;
32347;SDS011;18821;44.800;10.326;2023-05-07T13:02:07;8.68;;;7.15;;
32347;SDS011;18821;44.800;10.326;2023-05-07T13:04:36;9.70;;;7.75;;
32347;SDS011;18821;44.800;10.326;2023-05-07T13:07:02;11.38;;;7.85;;
32347;SDS011;18821;44.800;10.326;2023-05-07T13:09:28;5.90;;;5.30;;
32347;SDS011;18821;44.800;10.326;2023-05-07T13:11:54;8.13;;;6.63;;
32347;SDS011;18821;44.800;10.326;2023-05-07T13:14:20;9.95;;;7.20;;
32347;SDS011;18821;44.800;10.326;2023-05-07T13:16:47;8.93;;;7.47;;
32347;SDS011;18821;44.800;10.326;2023-05-07T13:19:13;7.78;;;6.55;;
32347;SDS011;18821;44.800;10.326;2023-05-07T13:21:39;10.38;;;8.55;;
32347;SDS011;18821;44.800;10.326;2023-05-07T13:24:05;9.27;;;7.20;;
32347;SDS011;18821;44.800;10.326;2023-05-07T13:26:31;11.45;;;6.47;;
32347;SDS011;18821;44.800;10.326;2023-05-07T13:28:57;9.82;;;7.68;;
32347;SDS011;18821;44.800;10.326;2023-05-07T13:31:24;11.02;;;7.25;;
32347;SDS011;18821;44.800;10.326;2023-05-07T13:33:50;13.50;;;8.80;;
32347;SDS011;18821;44.800;10.326;2023-05-07T13:36:16;9.50;;;8.50;;
32347;SDS011;18821;44.800;10.326;2023-05-07T13:38:42;9.57;;;8.20;;
32347;SDS011;18821;44.800;10.326;2023-05-07T13:41:07;7.20;;;6.50;;
32347;SDS011;18821;44.800;10.326;2023-05-07T13:43:34;11.18;;;8.35;;
32347;SDS011;18821;44.800;10.326;2023-05-07T13:46:00;9.23;;;6.75;;
32347;SDS011;18821;44.800;10.326;2023-05-07T13:48:26;11.40;;;7.15;;
32347;SDS011;18821;44.800;10.326;2023-05-07T13:50:53;9.00;;;6.97;;
32347;SDS011;18821;44.800;10.326;2023-05-07T13:53:19;10.80;;;6.90;;
32347;SDS011;18821;44.800;10.326;2023-05-07T13:55:45;9.48;;;7.10;;
32347;SDS011;18821;44.800;10.326;2023-05-07T13:58:11;7.90;;;6.13;;
32347;SDS011;18821;44.800;10.326;2023-05-07T14:00:37;6.75;;;6.05;;
32347;SDS011;18821;44.800;10.326;2023-05-07T14:03:04;8.88;;;7.35;;
32347;SDS011;18821;44.800;10.326;2023-05-07T14:05:30;11.15;;;7.68;;
32347;SDS011;18821;44.800;10.326;2023-05-07T14:07:56;8.70;;;7.28;;
32347;SDS011;18821;44.800;10.326;2023-05-07T14:10:23;7.18;;;6.32;;
32347;SDS011;18821;44.800;10.326;2023-05-07T14:12:49;8.52;;;5.80;;
32347;SDS011;18821;44.800;10.326;2023-05-07T14:15:15;7.32;;;5.90;;
32347;SDS011;18821;44.800;10.326;2023-05-07T14:17:42;12.27;;;7.05;;
32347;SDS011;18821;44.800;10.326;2023-05-07T14:20:08;8.75;;;5.55;;
32347;SDS011;18821;44.800;10.326;2023-05-07T14:22:38;8.68;;;5.30;;
32347;SDS011;18821;44.800;10.326;2023-05-07T14:25:04;11.18;;;7.25;;
32347;SDS011;18821;44.800;10.326;2023-05-07T14:27:31;10.10;;;5.30;;
32347;SDS011;18821;44.800;10.326;2023-05-07T14:29:57;6.10;;;4.20;;
32347;SDS011;18821;44.800;10.326;2023-05-07T14:32:23;7.05;;;5.38;;